Impacts TAF Board
For situational awareness. Not to be used for flight planning purposes.
IDs:

KCLM - Port Angeles Intl, WA, US

Issued at 2346 UTC 05 Dec 2019
Updated at 0116 UTC 06 Dec 2019
Potential Impact None Slight Moderate High
Time0053Z 06/02Z 06/03Z 06/04Z 06/05Z 06/06Z 06/07Z 06/08Z 06/09Z 06/10Z 06/11Z 06/12Z 06/13Z 06/14Z>>
Type OBS PRVL PRVL PRVL PRVL PRVL PRVL PRVL PRVL PRVL PRVL PRVL PRVL PRVL
VIS 10 >6 >6 >6 >6 >6 >6 >6 >6 >6 >6 >6 5 5
CIG 11 30 30 30 30 30 30 10 10 10 10 10 7 7
Cover OVC OVC OVC OVC OVC OVC OVC OVC OVC OVC OVC OVC OVC OVC
FltCat MVFR MVFR MVFR MVFR MVFR MVFR MVFR MVFR MVFR MVFR MVFR MVFR IFR IFR
WX -- -- -- -- -- -- -- -- -- -- -- -- -RA -RA
WDir VRB 110 110 110 110 110 110 140 140 140 140 140 100 100
WSpd 0 3 3 3 3 3 3 2 2 2 2 2 2 2
WGst -- -- -- -- -- -- -- -- -- -- -- -- -- --
Raw TAF
KCLM 052346Z 0600/0624 09003KT P6SM OVC012
  FM060200 11003KT P6SM OVC030
  FM060800 14002KT P6SM OVC010
  FM061300 10002KT 5SM -RA OVC007


Raw METAR
KCLM 060053Z AUTO 00000KT 10SM OVC011 07/05 A3003 RMK AO2 SLP173 T00670050
KCLM 052353Z AUTO 12006KT 10SM OVC012 07/04 A3004 RMK AO2 SLP175 T00670044 10072 20061 58003
KCLM 052253Z AUTO 09003KT 10SM OVC012 07/05 A3005 RMK AO2 SLP177 T00670050

METAR Board
Radar Display
Forecast Discussion
For situational awareness. Not to be used for flight planning purposes.